sensor_id;sensor_type;location;lat;lon;timestamp;temperature;humidity
75363;DHT22;64122;51.988;5.892;2023-09-19T00:00:58;17.33;68.65
75363;DHT22;64122;51.988;5.892;2023-09-19T00:03:29;17.32;68.75
75363;DHT22;64122;51.988;5.892;2023-09-19T00:05:58;17.29;68.87
75363;DHT22;64122;51.988;5.892;2023-09-19T00:08:28;17.30;68.96
75363;DHT22;64122;51.988;5.892;2023-09-19T00:10:59;17.29;68.95
75363;DHT22;64122;51.988;5.892;2023-09-19T00:13:32;17.34;68.94
75363;DHT22;64122;51.988;5.892;2023-09-19T00:16:08;17.33;68.94
75363;DHT22;64122;51.988;5.892;2023-09-19T00:18:38;17.36;69.10
75363;DHT22;64122;51.988;5.892;2023-09-19T00:21:08;17.38;69.03
75363;DHT22;64122;51.988;5.892;2023-09-19T00:23:37;17.43;69.19
75363;DHT22;64122;51.988;5.892;2023-09-19T00:26:09;17.47;69.23
75363;DHT22;64122;51.988;5.892;2023-09-19T00:28:39;17.40;69.60
75363;DHT22;64122;51.988;5.892;2023-09-19T00:31:09;17.48;69.28
75363;DHT22;64122;51.988;5.892;2023-09-19T00:33:39;17.51;69.36
75363;DHT22;64122;51.988;5.892;2023-09-19T00:36:08;17.47;69.85
75363;DHT22;64122;51.988;5.892;2023-09-19T00:38:38;17.46;70.10
75363;DHT22;64122;51.988;5.892;2023-09-19T00:41:09;17.40;70.42
75363;DHT22;64122;51.988;5.892;2023-09-19T00:43:39;17.43;70.66
75363;DHT22;64122;51.988;5.892;2023-09-19T00:46:08;17.45;70.79
75363;DHT22;64122;51.988;5.892;2023-09-19T00:48:40;17.45;70.82
75363;DHT22;64122;51.988;5.892;2023-09-19T00:51:10;17.45;71.11
75363;DHT22;64122;51.988;5.892;2023-09-19T00:53:40;17.44;71.19
75363;DHT22;64122;51.988;5.892;2023-09-19T00:56:15;17.41;71.16
75363;DHT22;64122;51.988;5.892;2023-09-19T00:58:44;17.32;71.52
75363;DHT22;64122;51.988;5.892;2023-09-19T01:01:13;17.46;71.42
75363;DHT22;64122;51.988;5.892;2023-09-19T01:03:44;17.49;71.58
75363;DHT22;64122;51.988;5.892;2023-09-19T01:06:13;17.51;71.46
75363;DHT22;64122;51.988;5.892;2023-09-19T01:08:43;17.51;71.50
75363;DHT22;64122;51.988;5.892;2023-09-19T01:11:21;17.46;71.61
75363;DHT22;64122;51.988;5.892;2023-09-19T01:14:02;17.43;71.63
75363;DHT22;64122;51.988;5.892;2023-09-19T01:16:42;17.36;71.77
75363;DHT22;64122;51.988;5.892;2023-09-19T01:19:32;17.33;71.91
75363;DHT22;64122;51.988;5.892;2023-09-19T01:22:13;17.32;71.91
75363;DHT22;64122;51.988;5.892;2023-09-19T01:25:02;17.25;72.03
75363;DHT22;64122;51.988;5.892;2023-09-19T01:27:58;17.24;71.96
75363;DHT22;64122;51.988;5.892;2023-09-19T01:30:33;17.25;72.02
75363;DHT22;64122;51.988;5.892;2023-09-19T01:33:05;17.24;71.93
75363;DHT22;64122;51.988;5.892;2023-09-19T01:35:37;17.25;72.03
75363;DHT22;64122;51.988;5.892;2023-09-19T01:38:07;17.28;71.97
75363;DHT22;64122;51.988;5.892;2023-09-19T01:40:42;17.26;71.69
75363;DHT22;64122;51.988;5.892;2023-09-19T01:43:18;17.25;71.45
75363;DHT22;64122;51.988;5.892;2023-09-19T01:46:01;17.29;71.35
75363;DHT22;64122;51.988;5.892;2023-09-19T01:48:38;17.30;70.97
75363;DHT22;64122;51.988;5.892;2023-09-19T01:51:15;17.34;70.90
75363;DHT22;64122;51.988;5.892;2023-09-19T01:53:53;17.28;71.32
75363;DHT22;64122;51.988;5.892;2023-09-19T01:56:29;17.37;70.36
75363;DHT22;64122;51.988;5.892;2023-09-19T01:59:05;17.37;70.07
75363;DHT22;64122;51.988;5.892;2023-09-19T02:01:39;17.35;69.78
75363;DHT22;64122;51.988;5.892;2023-09-19T02:04:11;17.34;69.73
75363;DHT22;64122;51.988;5.892;2023-09-19T02:06:40;17.29;69.21
75363;DHT22;64122;51.988;5.892;2023-09-19T02:09:09;17.25;69.22
75363;DHT22;64122;51.988;5.892;2023-09-19T02:11:39;17.22;69.20
75363;DHT22;64122;51.988;5.892;2023-09-19T02:14:08;17.16;69.35
75363;DHT22;64122;51.988;5.892;2023-09-19T02:16:40;17.08;69.40
75363;DHT22;64122;51.988;5.892;2023-09-19T02:19:09;17.02;69.36
75363;DHT22;64122;51.988;5.892;2023-09-19T02:21:39;17.00;69.46
75363;DHT22;64122;51.988;5.892;2023-09-19T02:24:08;16.96;69.63
75363;DHT22;64122;51.988;5.892;2023-09-19T02:26:38;16.94;69.37
75363;DHT22;64122;51.988;5.892;2023-09-19T02:29:09;16.92;69.28
75363;DHT22;64122;51.988;5.892;2023-09-19T02:31:41;16.87;69.16
75363;DHT22;64122;51.988;5.892;2023-09-19T02:34:12;16.87;69.21
75363;DHT22;64122;51.988;5.892;2023-09-19T02:36:43;16.84;69.10
75363;DHT22;64122;51.988;5.892;2023-09-19T02:39:13;16.78;68.87
75363;DHT22;64122;51.988;5.892;2023-09-19T02:41:42;16.76;68.73
75363;DHT22;64122;51.988;5.892;2023-09-19T02:44:12;16.73;68.49
75363;DHT22;64122;51.988;5.892;2023-09-19T02:46:44;16.67;68.34
75363;DHT22;64122;51.988;5.892;2023-09-19T02:49:13;16.64;68.26
75363;DHT22;64122;51.988;5.892;2023-09-19T02:51:44;16.60;68.26
75363;DHT22;64122;51.988;5.892;2023-09-19T02:54:13;16.56;68.17
75363;DHT22;64122;51.988;5.892;2023-09-19T02:56:43;16.54;68.19
75363;DHT22;64122;51.988;5.892;2023-09-19T02:59:13;16.48;68.02
75363;DHT22;64122;51.988;5.892;2023-09-19T03:01:46;16.44;68.13
75363;DHT22;64122;51.988;5.892;2023-09-19T03:04:15;16.45;68.17
75363;DHT22;64122;51.988;5.892;2023-09-19T03:06:47;16.44;68.13
75363;DHT22;64122;51.988;5.892;2023-09-19T03:09:19;16.42;68.13
75363;DHT22;64122;51.988;5.892;2023-09-19T03:11:49;16.39;68.08
75363;DHT22;64122;51.988;5.892;2023-09-19T03:14:21;16.36;67.96
75363;DHT22;64122;51.988;5.892;2023-09-19T03:16:52;16.33;68.11
75363;DHT22;64122;51.988;5.892;2023-09-19T03:19:22;16.31;67.91
75363;DHT22;64122;51.988;5.892;2023-09-19T03:21:53;16.29;67.86
75363;DHT22;64122;51.988;5.892;2023-09-19T03:24:24;16.27;68.02
75363;DHT22;64122;51.988;5.892;2023-09-19T03:26:53;16.27;67.92
75363;DHT22;64122;51.988;5.892;2023-09-19T03:29:23;16.24;67.94
75363;DHT22;64122;51.988;5.892;2023-09-19T03:31:56;16.18;67.97
75363;DHT22;64122;51.988;5.892;2023-09-19T03:34:25;16.14;67.89
75363;DHT22;64122;51.988;5.892;2023-09-19T03:36:55;16.12;67.59
75363;DHT22;64122;51.988;5.892;2023-09-19T03:39:24;16.08;67.57
75363;DHT22;64122;51.988;5.892;2023-09-19T03:41:53;16.06;67.36
75363;DHT22;64122;51.988;5.892;2023-09-19T03:44:23;16.04;67.35
75363;DHT22;64122;51.988;5.892;2023-09-19T03:46:52;16.00;67.10
75363;DHT22;64122;51.988;5.892;2023-09-19T03:49:26;15.97;66.98
75363;DHT22;64122;51.988;5.892;2023-09-19T03:51:56;15.98;66.92
75363;DHT22;64122;51.988;5.892;2023-09-19T03:54:26;16.00;66.76
75363;DHT22;64122;51.988;5.892;2023-09-19T03:56:55;16.01;66.75
75363;DHT22;64122;51.988;5.892;2023-09-19T03:59:24;16.00;66.47
75363;DHT22;64122;51.988;5.892;2023-09-19T04:01:55;15.97;66.46
75363;DHT22;64122;51.988;5.892;2023-09-19T04:04:29;15.93;66.44
75363;DHT22;64122;51.988;5.892;2023-09-19T04:06:59;15.93;66.40
75363;DHT22;64122;51.988;5.892;2023-09-19T04:09:28;15.88;66.45
75363;DHT22;64122;51.988;5.892;2023-09-19T04:11:58;15.86;66.22
75363;DHT22;64122;51.988;5.892;2023-09-19T04:14:29;15.83;66.25
75363;DHT22;64122;51.988;5.892;2023-09-19T04:16:58;15.78;65.93
75363;DHT22;64122;51.988;5.892;2023-09-19T04:19:31;15.74;65.98
75363;DHT22;64122;51.988;5.892;2023-09-19T04:22:00;15.73;65.87
75363;DHT22;64122;51.988;5.892;2023-09-19T04:24:30;15.71;66.01
75363;DHT22;64122;51.988;5.892;2023-09-19T04:27:00;15.71;65.96
75363;DHT22;64122;51.988;5.892;2023-09-19T04:29:29;15.71;65.98
75363;DHT22;64122;51.988;5.892;2023-09-19T04:31:59;15.75;66.11
75363;DHT22;64122;51.988;5.892;2023-09-19T04:34:33;15.77;65.92
75363;DHT22;64122;51.988;5.892;2023-09-19T04:37:04;15.81;66.00
75363;DHT22;64122;51.988;5.892;2023-09-19T04:39:33;15.84;65.89
75363;DHT22;64122;51.988;5.892;2023-09-19T04:42:03;15.86;65.66
75363;DHT22;64122;51.988;5.892;2023-09-19T04:44:32;15.87;65.47
75363;DHT22;64122;51.988;5.892;2023-09-19T04:47:02;15.88;65.54
75363;DHT22;64122;51.988;5.892;2023-09-19T04:49:34;15.86;65.56
75363;DHT22;64122;51.988;5.892;2023-09-19T04:52:04;15.88;65.67
75363;DHT22;64122;51.988;5.892;2023-09-19T04:54:34;15.85;65.44
75363;DHT22;64122;51.988;5.892;2023-09-19T04:57:04;15.82;65.42
75363;DHT22;64122;51.988;5.892;2023-09-19T04:59:34;15.82;65.78
75363;DHT22;64122;51.988;5.892;2023-09-19T05:02:04;15.80;65.62
75363;DHT22;64122;51.988;5.892;2023-09-19T05:04:36;15.77;65.71
75363;DHT22;64122;51.988;5.892;2023-09-19T05:07:06;15.76;65.50
75363;DHT22;64122;51.988;5.892;2023-09-19T05:09:36;15.76;65.75
75363;DHT22;64122;51.988;5.892;2023-09-19T05:12:08;15.80;65.82
75363;DHT22;64122;51.988;5.892;2023-09-19T05:14:37;15.78;65.80
75363;DHT22;64122;51.988;5.892;2023-09-19T05:17:06;15.76;65.85
75363;DHT22;64122;51.988;5.892;2023-09-19T05:19:38;15.76;66.01
75363;DHT22;64122;51.988;5.892;2023-09-19T05:22:07;15.81;65.95
75363;DHT22;64122;51.988;5.892;2023-09-19T05:24:37;15.81;66.14
75363;DHT22;64122;51.988;5.892;2023-09-19T05:27:08;15.86;66.20
75363;DHT22;64122;51.988;5.892;2023-09-19T05:29:37;15.90;66.17
75363;DHT22;64122;51.988;5.892;2023-09-19T05:32:08;15.93;65.98
75363;DHT22;64122;51.988;5.892;2023-09-19T05:34:40;15.92;65.78
75363;DHT22;64122;51.988;5.892;2023-09-19T05:37:09;15.96;65.82
75363;DHT22;64122;51.988;5.892;2023-09-19T05:39:39;15.98;65.84
75363;DHT22;64122;51.988;5.892;2023-09-19T05:42:08;16.03;65.90
75363;DHT22;64122;51.988;5.892;2023-09-19T05:44:37;16.05;65.85
75363;DHT22;64122;51.988;5.892;2023-09-19T05:47:06;16.07;65.75
75363;DHT22;64122;51.988;5.892;2023-09-19T05:49:36;16.12;65.85
75363;DHT22;64122;51.988;5.892;2023-09-19T05:52:09;16.13;65.94
75363;DHT22;64122;51.988;5.892;2023-09-19T05:54:38;16.15;65.85
75363;DHT22;64122;51.988;5.892;2023-09-19T05:57:08;16.19;65.99
75363;DHT22;64122;51.988;5.892;2023-09-19T05:59:38;16.20;65.91
75363;DHT22;64122;51.988;5.892;2023-09-19T06:02:08;16.19;65.93
75363;DHT22;64122;51.988;5.892;2023-09-19T06:04:38;16.18;66.07
75363;DHT22;64122;51.988;5.892;2023-09-19T06:07:10;16.20;65.98
75363;DHT22;64122;51.988;5.892;2023-09-19T06:09:41;16.27;66.01
75363;DHT22;64122;51.988;5.892;2023-09-19T06:12:10;16.32;65.98
75363;DHT22;64122;51.988;5.892;2023-09-19T06:14:43;16.35;66.00
75363;DHT22;64122;51.988;5.892;2023-09-19T06:17:12;16.41;65.95
75363;DHT22;64122;51.988;5.892;2023-09-19T06:19:41;16.46;66.11
75363;DHT22;64122;51.988;5.892;2023-09-19T06:22:17;16.49;66.06
75363;DHT22;64122;51.988;5.892;2023-09-19T06:24:47;16.54;66.00
75363;DHT22;64122;51.988;5.892;2023-09-19T06:27:16;16.57;66.05
75363;DHT22;64122;51.988;5.892;2023-09-19T06:29:45;16.60;65.88
75363;DHT22;64122;51.988;5.892;2023-09-19T06:32:14;16.62;66.11
75363;DHT22;64122;51.988;5.892;2023-09-19T06:34:44;16.69;65.97
75363;DHT22;64122;51.988;5.892;2023-09-19T06:37:13;16.75;65.90
75363;DHT22;64122;51.988;5.892;2023-09-19T06:39:45;16.76;65.87
75363;DHT22;64122;51.988;5.892;2023-09-19T06:42:14;16.82;65.81
75363;DHT22;64122;51.988;5.892;2023-09-19T06:44:43;16.93;65.81
75363;DHT22;64122;51.988;5.892;2023-09-19T06:47:12;16.98;65.78
75363;DHT22;64122;51.988;5.892;2023-09-19T06:49:42;17.03;65.73
75363;DHT22;64122;51.988;5.892;2023-09-19T06:52:11;17.03;65.59
75363;DHT22;64122;51.988;5.892;2023-09-19T06:54:44;17.02;65.58
75363;DHT22;64122;51.988;5.892;2023-09-19T06:57:16;17.10;65.51
75363;DHT22;64122;51.988;5.892;2023-09-19T06:59:46;17.17;65.48
75363;DHT22;64122;51.988;5.892;2023-09-19T07:02:15;17.21;65.27
75363;DHT22;64122;51.988;5.892;2023-09-19T07:04:44;17.34;65.21
75363;DHT22;64122;51.988;5.892;2023-09-19T07:07:13;17.43;65.07
75363;DHT22;64122;51.988;5.892;2023-09-19T07:09:45;17.49;64.91
75363;DHT22;64122;51.988;5.892;2023-09-19T07:12:15;17.55;64.72
75363;DHT22;64122;51.988;5.892;2023-09-19T07:14:44;17.63;64.56
75363;DHT22;64122;51.988;5.892;2023-09-19T07:17:13;17.66;64.40
75363;DHT22;64122;51.988;5.892;2023-09-19T07:19:45;17.77;64.42
75363;DHT22;64122;51.988;5.892;2023-09-19T07:22:15;17.82;64.01
75363;DHT22;64122;51.988;5.892;2023-09-19T07:24:46;17.89;63.79
75363;DHT22;64122;51.988;5.892;2023-09-19T07:27:16;18.00;63.35
75363;DHT22;64122;51.988;5.892;2023-09-19T07:29:45;18.19;63.06
75363;DHT22;64122;51.988;5.892;2023-09-19T07:32:14;18.38;62.47
75363;DHT22;64122;51.988;5.892;2023-09-19T07:34:43;18.57;62.02
75363;DHT22;64122;51.988;5.892;2023-09-19T07:37:12;18.81;61.46
75363;DHT22;64122;51.988;5.892;2023-09-19T07:39:42;19.16;60.71
75363;DHT22;64122;51.988;5.892;2023-09-19T07:42:14;19.79;59.12
75363;DHT22;64122;51.988;5.892;2023-09-19T07:44:44;20.50;57.25
75363;DHT22;64122;51.988;5.892;2023-09-19T07:47:17;21.10;55.58
75363;DHT22;64122;51.988;5.892;2023-09-19T07:49:47;21.50;54.19
75363;DHT22;64122;51.988;5.892;2023-09-19T07:52:16;21.48;54.30
75363;DHT22;64122;51.988;5.892;2023-09-19T07:54:48;21.52;54.23
75363;DHT22;64122;51.988;5.892;2023-09-19T07:57:21;21.80;53.38
75363;DHT22;64122;51.988;5.892;2023-09-19T07:59:51;22.14;52.46
75363;DHT22;64122;51.988;5.892;2023-09-19T08:02:20;22.67;51.14
75363;DHT22;64122;51.988;5.892;2023-09-19T08:04:49;23.26;49.68
75363;DHT22;64122;51.988;5.892;2023-09-19T08:07:18;23.60;48.69
75363;DHT22;64122;51.988;5.892;2023-09-19T08:09:49;23.68;48.52
75363;DHT22;64122;51.988;5.892;2023-09-19T08:12:21;24.03;47.92
75363;DHT22;64122;51.988;5.892;2023-09-19T08:14:50;24.36;48.38
75363;DHT22;64122;51.988;5.892;2023-09-19T08:17:19;24.93;46.13
75363;DHT22;64122;51.988;5.892;2023-09-19T08:19:49;25.06;45.69
75363;DHT22;64122;51.988;5.892;2023-09-19T08:22:19;25.02;45.50
75363;DHT22;64122;51.988;5.892;2023-09-19T08:24:49;25.30;45.02
75363;DHT22;64122;51.988;5.892;2023-09-19T08:27:21;25.42;44.90
75363;DHT22;64122;51.988;5.892;2023-09-19T08:29:53;25.63;44.25
75363;DHT22;64122;51.988;5.892;2023-09-19T08:32:22;25.20;44.83
75363;DHT22;64122;51.988;5.892;2023-09-19T08:34:53;25.00;45.20
75363;DHT22;64122;51.988;5.892;2023-09-19T08:37:22;24.86;45.54
75363;DHT22;64122;51.988;5.892;2023-09-19T08:39:52;24.58;45.91
75363;DHT22;64122;51.988;5.892;2023-09-19T08:42:24;24.43;46.28
75363;DHT22;64122;51.988;5.892;2023-09-19T08:44:53;24.66;45.82
75363;DHT22;64122;51.988;5.892;2023-09-19T08:47:33;24.91;45.67
75363;DHT22;64122;51.988;5.892;2023-09-19T08:50:08;25.07;44.92
75363;DHT22;64122;51.988;5.892;2023-09-19T08:52:42;24.88;45.23
75363;DHT22;64122;51.988;5.892;2023-09-19T08:55:12;24.73;45.51
75363;DHT22;64122;51.988;5.892;2023-09-19T08:57:50;24.29;46.25
75363;DHT22;64122;51.988;5.892;2023-09-19T09:00:20;24.02;47.04
75363;DHT22;64122;51.988;5.892;2023-09-19T09:02:54;24.00;47.43
75363;DHT22;64122;51.988;5.892;2023-09-19T09:05:24;24.23;46.76
75363;DHT22;64122;51.988;5.892;2023-09-19T09:07:54;24.32;46.30
75363;DHT22;64122;51.988;5.892;2023-09-19T09:10:26;24.51;46.04
75363;DHT22;64122;51.988;5.892;2023-09-19T09:12:58;24.62;46.10
75363;DHT22;64122;51.988;5.892;2023-09-19T09:15:29;24.53;46.13
75363;DHT22;64122;51.988;5.892;2023-09-19T09:17:59;24.55;46.21
75363;DHT22;64122;51.988;5.892;2023-09-19T09:20:28;24.53;46.20
75363;DHT22;64122;51.988;5.892;2023-09-19T09:22:58;24.91;45.22
75363;DHT22;64122;51.988;5.892;2023-09-19T09:25:47;25.34;44.48
75363;DHT22;64122;51.988;5.892;2023-09-19T09:28:26;25.17;43.95
75363;DHT22;64122;51.988;5.892;2023-09-19T09:30:55;24.77;44.69
75363;DHT22;64122;51.988;5.892;2023-09-19T09:33:25;24.15;46.02
75363;DHT22;64122;51.988;5.892;2023-09-19T09:35:56;23.55;47.56
75363;DHT22;64122;51.988;5.892;2023-09-19T09:38:27;23.23;48.51
75363;DHT22;64122;51.988;5.892;2023-09-19T09:40:59;23.02;49.27
75363;DHT22;64122;51.988;5.892;2023-09-19T09:43:36;23.03;49.19
75363;DHT22;64122;51.988;5.892;2023-09-19T09:46:07;23.50;46.85
75363;DHT22;64122;51.988;5.892;2023-09-19T09:48:59;23.92;46.02
75363;DHT22;64122;51.988;5.892;2023-09-19T09:51:48;23.60;46.51
75363;DHT22;64122;51.988;5.892;2023-09-19T09:54:29;23.36;46.71
75363;DHT22;64122;51.988;5.892;2023-09-19T09:57:04;23.47;46.41
75363;DHT22;64122;51.988;5.892;2023-09-19T09:59:50;23.34;47.19
75363;DHT22;64122;51.988;5.892;2023-09-19T10:02:21;23.27;47.60
75363;DHT22;64122;51.988;5.892;2023-09-19T10:04:55;23.24;47.61
75363;DHT22;64122;51.988;5.892;2023-09-19T10:07:36;23.00;47.96
75363;DHT22;64122;51.988;5.892;2023-09-19T10:10:08;22.91;48.05
75363;DHT22;64122;51.988;5.892;2023-09-19T10:12:48;22.72;48.98
75363;DHT22;64122;51.988;5.892;2023-09-19T10:15:20;22.65;49.00
75363;DHT22;64122;51.988;5.892;2023-09-19T10:17:52;22.69;49.49
75363;DHT22;64122;51.988;5.892;2023-09-19T10:20:25;22.80;49.15
75363;DHT22;64122;51.988;5.892;2023-09-19T10:23:06;22.77;49.31
75363;DHT22;64122;51.988;5.892;2023-09-19T10:25:40;22.62;49.24
75363;DHT22;64122;51.988;5.892;2023-09-19T10:28:13;22.65;49.66
75363;DHT22;64122;51.988;5.892;2023-09-19T10:30:46;22.66;49.58
75363;DHT22;64122;51.988;5.892;2023-09-19T10:33:18;22.65;48.98
75363;DHT22;64122;51.988;5.892;2023-09-19T10:35:49;22.55;49.24
75363;DHT22;64122;51.988;5.892;2023-09-19T10:38:20;22.51;49.40
75363;DHT22;64122;51.988;5.892;2023-09-19T10:40:53;22.48;49.76
75363;DHT22;64122;51.988;5.892;2023-09-19T10:43:29;22.36;49.92
75363;DHT22;64122;51.988;5.892;2023-09-19T10:46:06;22.32;49.79
75363;DHT22;64122;51.988;5.892;2023-09-19T10:48:37;22.33;49.78
75363;DHT22;64122;51.988;5.892;2023-09-19T10:51:08;22.33;49.77
75363;DHT22;64122;51.988;5.892;2023-09-19T10:53:48;22.41;49.56
75363;DHT22;64122;51.988;5.892;2023-09-19T10:56:24;22.38;49.92
75363;DHT22;64122;51.988;5.892;2023-09-19T10:59:06;22.44;50.06
75363;DHT22;64122;51.988;5.892;2023-09-19T11:01:47;22.39;50.41
75363;DHT22;64122;51.988;5.892;2023-09-19T11:04:24;22.33;50.82
75363;DHT22;64122;51.988;5.892;2023-09-19T11:07:04;22.12;51.10
75363;DHT22;64122;51.988;5.892;2023-09-19T11:09:45;21.97;51.67
75363;DHT22;64122;51.988;5.892;2023-09-19T11:24:32;21.80;52.04
75363;DHT22;64122;51.988;5.892;2023-09-19T11:27:14;21.76;52.29
75363;DHT22;64122;51.988;5.892;2023-09-19T11:29:44;21.75;52.42
75363;DHT22;64122;51.988;5.892;2023-09-19T11:32:15;21.85;52.15
75363;DHT22;64122;51.988;5.892;2023-09-19T11:34:49;21.82;51.38
75363;DHT22;64122;51.988;5.892;2023-09-19T11:40:18;21.60;52.01
75363;DHT22;64122;51.988;5.892;2023-09-19T11:42:48;21.65;52.06
75363;DHT22;64122;51.988;5.892;2023-09-19T11:48:39;21.80;51.29
75363;DHT22;64122;51.988;5.892;2023-09-19T11:51:12;21.95;51.06
75363;DHT22;64122;51.988;5.892;2023-09-19T11:53:46;22.07;50.67
75363;DHT22;64122;51.988;5.892;2023-09-19T11:56:21;22.20;50.53
75363;DHT22;64122;51.988;5.892;2023-09-19T11:58:53;22.31;50.08
75363;DHT22;64122;51.988;5.892;2023-09-19T12:01:29;22.32;50.34
75363;DHT22;64122;51.988;5.892;2023-09-19T12:04:00;22.37;50.45
75363;DHT22;64122;51.988;5.892;2023-09-19T12:06:31;22.52;50.58
75363;DHT22;64122;51.988;5.892;2023-09-19T12:09:02;22.63;49.87
75363;DHT22;64122;51.988;5.892;2023-09-19T12:11:42;22.58;49.47
75363;DHT22;64122;51.988;5.892;2023-09-19T12:14:12;22.61;49.84
75363;DHT22;64122;51.988;5.892;2023-09-19T12:16:53;22.62;49.33
75363;DHT22;64122;51.988;5.892;2023-09-19T12:19:23;22.52;49.02
75363;DHT22;64122;51.988;5.892;2023-09-19T12:21:56;22.41;49.02
75363;DHT22;64122;51.988;5.892;2023-09-19T12:24:31;22.41;49.39
75363;DHT22;64122;51.988;5.892;2023-09-19T12:27:06;22.39;49.10
75363;DHT22;64122;51.988;5.892;2023-09-19T12:29:44;22.32;48.77
75363;DHT22;64122;51.988;5.892;2023-09-19T12:32:15;22.23;48.66
75363;DHT22;64122;51.988;5.892;2023-09-19T12:34:51;22.23;49.18
75363;DHT22;64122;51.988;5.892;2023-09-19T12:37:20;22.19;49.46
75363;DHT22;64122;51.988;5.892;2023-09-19T12:40:04;22.04;49.21
75363;DHT22;64122;51.988;5.892;2023-09-19T12:42:44;21.92;49.40
75363;DHT22;64122;51.988;5.892;2023-09-19T12:45:14;21.82;50.03
75363;DHT22;64122;51.988;5.892;2023-09-19T12:51:01;21.64;50.61
75363;DHT22;64122;51.988;5.892;2023-09-19T12:53:34;21.62;50.43
75363;DHT22;64122;51.988;5.892;2023-09-19T12:56:06;21.59;50.66
75363;DHT22;64122;51.988;5.892;2023-09-19T12:58:51;21.57;50.97
75363;DHT22;64122;51.988;5.892;2023-09-19T13:01:20;21.54;50.95
75363;DHT22;64122;51.988;5.892;2023-09-19T13:04:11;21.50;51.34
75363;DHT22;64122;51.988;5.892;2023-09-19T13:06:44;21.46;51.29
75363;DHT22;64122;51.988;5.892;2023-09-19T13:09:15;21.44;51.14
75363;DHT22;64122;51.988;5.892;2023-09-19T13:11:46;21.46;51.43
75363;DHT22;64122;51.988;5.892;2023-09-19T13:14:20;21.46;51.35
75363;DHT22;64122;51.988;5.892;2023-09-19T13:16:57;21.44;51.48
75363;DHT22;64122;51.988;5.892;2023-09-19T13:19:37;21.49;51.52
75363;DHT22;64122;51.988;5.892;2023-09-19T13:22:38;21.58;51.59
75363;DHT22;64122;51.988;5.892;2023-09-19T13:25:10;21.57;51.47
75363;DHT22;64122;51.988;5.892;2023-09-19T13:27:42;21.58;51.77
75363;DHT22;64122;51.988;5.892;2023-09-19T13:30:14;21.57;51.82
75363;DHT22;64122;51.988;5.892;2023-09-19T13:32:44;21.55;51.93
75363;DHT22;64122;51.988;5.892;2023-09-19T13:35:13;21.46;51.85
75363;DHT22;64122;51.988;5.892;2023-09-19T13:37:43;21.36;52.04
75363;DHT22;64122;51.988;5.892;2023-09-19T13:40:15;21.31;52.04
75363;DHT22;64122;51.988;5.892;2023-09-19T13:42:44;21.28;52.35
75363;DHT22;64122;51.988;5.892;2023-09-19T13:45:17;21.22;52.38
75363;DHT22;64122;51.988;5.892;2023-09-19T13:47:48;21.22;52.46
75363;DHT22;64122;51.988;5.892;2023-09-19T13:50:17;21.24;52.82
75363;DHT22;64122;51.988;5.892;2023-09-19T13:52:50;21.23;52.58
75363;DHT22;64122;51.988;5.892;2023-09-19T13:55:20;21.25;52.72
75363;DHT22;64122;51.988;5.892;2023-09-19T13:57:49;21.36;52.39
75363;DHT22;64122;51.988;5.892;2023-09-19T14:00:24;21.43;52.30
75363;DHT22;64122;51.988;5.892;2023-09-19T14:02:53;21.51;52.07
75363;DHT22;64122;51.988;5.892;2023-09-19T14:05:22;21.59;51.75
75363;DHT22;64122;51.988;5.892;2023-09-19T14:07:54;21.65;51.75
75363;DHT22;64122;51.988;5.892;2023-09-19T14:10:23;21.75;51.63
75363;DHT22;64122;51.988;5.892;2023-09-19T14:12:53;21.83;51.66
75363;DHT22;64122;51.988;5.892;2023-09-19T14:15:26;21.90;51.50
75363;DHT22;64122;51.988;5.892;2023-09-19T14:17:59;21.96;51.53
75363;DHT22;64122;51.988;5.892;2023-09-19T14:20:28;21.99;51.07
75363;DHT22;64122;51.988;5.892;2023-09-19T14:22:57;22.02;51.08
75363;DHT22;64122;51.988;5.892;2023-09-19T14:25:28;21.99;50.71
75363;DHT22;64122;51.988;5.892;2023-09-19T14:27:57;21.99;51.04
75363;DHT22;64122;51.988;5.892;2023-09-19T14:30:29;21.91;51.04
75363;DHT22;64122;51.988;5.892;2023-09-19T14:32:58;21.89;51.41
75363;DHT22;64122;51.988;5.892;2023-09-19T14:35:28;21.81;51.53
75363;DHT22;64122;51.988;5.892;2023-09-19T14:37:57;21.68;51.26
75363;DHT22;64122;51.988;5.892;2023-09-19T14:40:27;21.60;51.40
75363;DHT22;64122;51.988;5.892;2023-09-19T14:42:57;21.55;51.64
75363;DHT22;64122;51.988;5.892;2023-09-19T14:45:29;21.58;51.85
75363;DHT22;64122;51.988;5.892;2023-09-19T14:47:58;21.58;51.89
75363;DHT22;64122;51.988;5.892;2023-09-19T14:50:31;21.62;52.18
75363;DHT22;64122;51.988;5.892;2023-09-19T14:53:00;21.63;52.24
75363;DHT22;64122;51.988;5.892;2023-09-19T14:55:36;21.59;52.00
75363;DHT22;64122;51.988;5.892;2023-09-19T14:58:07;21.50;51.91
75363;DHT22;64122;51.988;5.892;2023-09-19T15:00:39;21.40;52.10
75363;DHT22;64122;51.988;5.892;2023-09-19T15:03:11;21.35;52.32
75363;DHT22;64122;51.988;5.892;2023-09-19T15:05:40;21.31;52.56
75363;DHT22;64122;51.988;5.892;2023-09-19T15:08:10;21.25;52.82
75363;DHT22;64122;51.988;5.892;2023-09-19T15:10:39;21.20;53.00
75363;DHT22;64122;51.988;5.892;2023-09-19T15:13:08;21.20;53.05
75363;DHT22;64122;51.988;5.892;2023-09-19T15:15:40;21.19;53.17
75363;DHT22;64122;51.988;5.892;2023-09-19T15:18:11;21.18;53.57
75363;DHT22;64122;51.988;5.892;2023-09-19T15:20:43;21.19;53.88
75363;DHT22;64122;51.988;5.892;2023-09-19T15:23:13;21.15;53.57
75363;DHT22;64122;51.988;5.892;2023-09-19T15:25:47;21.10;53.58
75363;DHT22;64122;51.988;5.892;2023-09-19T15:28:17;21.08;53.97
75363;DHT22;64122;51.988;5.892;2023-09-19T15:30:57;21.05;54.08
75363;DHT22;64122;51.988;5.892;2023-09-19T15:33:26;21.06;54.07
75363;DHT22;64122;51.988;5.892;2023-09-19T15:36:03;21.00;54.29
75363;DHT22;64122;51.988;5.892;2023-09-19T15:38:56;20.96;54.45
75363;DHT22;64122;51.988;5.892;2023-09-19T15:41:26;20.94;54.50
75363;DHT22;64122;51.988;5.892;2023-09-19T15:43:57;20.94;54.47
75363;DHT22;64122;51.988;5.892;2023-09-19T15:46:30;20.88;54.81
75363;DHT22;64122;51.988;5.892;2023-09-19T15:49:01;20.90;54.83
75363;DHT22;64122;51.988;5.892;2023-09-19T15:51:31;20.93;54.78
75363;DHT22;64122;51.988;5.892;2023-09-19T15:54:07;20.91;54.87
75363;DHT22;64122;51.988;5.892;2023-09-19T15:56:37;20.91;54.95
75363;DHT22;64122;51.988;5.892;2023-09-19T15:59:07;20.92;54.91
75363;DHT22;64122;51.988;5.892;2023-09-19T16:01:41;20.90;54.93
75363;DHT22;64122;51.988;5.892;2023-09-19T16:04:11;20.91;55.01
75363;DHT22;64122;51.988;5.892;2023-09-19T16:06:43;20.89;55.02
75363;DHT22;64122;51.988;5.892;2023-09-19T16:09:12;20.88;55.27
75363;DHT22;64122;51.988;5.892;2023-09-19T16:11:42;20.90;55.26
75363;DHT22;64122;51.988;5.892;2023-09-19T16:14:12;20.89;55.52
75363;DHT22;64122;51.988;5.892;2023-09-19T16:16:44;20.89;55.66
75363;DHT22;64122;51.988;5.892;2023-09-19T16:19:13;20.91;55.54
75363;DHT22;64122;51.988;5.892;2023-09-19T16:21:42;20.90;55.51